sensor_id;sensor_type;location;lat;lon;timestamp;P1;durP1;ratioP1;P2;durP2;ratioP2
39208;SDS011;24929;51.982;4.664;2023-04-26T00:01:10;6.30;;;3.00;;
39208;SDS011;24929;51.982;4.664;2023-04-26T00:03:36;8.48;;;3.78;;
39208;SDS011;24929;51.982;4.664;2023-04-26T00:06:04;5.03;;;2.83;;
39208;SDS011;24929;51.982;4.664;2023-04-26T00:08:32;2.42;;;2.22;;
39208;SDS011;24929;51.982;4.664;2023-04-26T00:10:58;3.42;;;2.58;;
39208;SDS011;24929;51.982;4.664;2023-04-26T00:13:24;4.28;;;2.60;;
39208;SDS011;24929;51.982;4.664;2023-04-26T00:15:49;9.27;;;2.67;;
39208;SDS011;24929;51.982;4.664;2023-04-26T00:18:14;3.45;;;2.60;;
39208;SDS011;24929;51.982;4.664;2023-04-26T00:20:41;4.10;;;2.08;;
39208;SDS011;24929;51.982;4.664;2023-04-26T00:23:06;4.97;;;3.00;;
39208;SDS011;24929;51.982;4.664;2023-04-26T00:25:33;7.93;;;3.33;;
39208;SDS011;24929;51.982;4.664;2023-04-26T00:27:59;4.32;;;2.30;;
39208;SDS011;24929;51.982;4.664;2023-04-26T00:30:25;3.92;;;2.72;;
39208;SDS011;24929;51.982;4.664;2023-04-26T00:32:50;4.72;;;2.53;;
39208;SDS011;24929;51.982;4.664;2023-04-26T00:35:16;7.35;;;2.83;;
39208;SDS011;24929;51.982;4.664;2023-04-26T00:37:41;5.50;;;2.80;;
39208;SDS011;24929;51.982;4.664;2023-04-26T00:40:06;3.28;;;2.25;;
39208;SDS011;24929;51.982;4.664;2023-04-26T00:42:33;7.65;;;2.97;;
39208;SDS011;24929;51.982;4.664;2023-04-26T00:44:58;2.78;;;2.35;;
39208;SDS011;24929;51.982;4.664;2023-04-26T00:47:24;10.13;;;3.13;;
39208;SDS011;24929;51.982;4.664;2023-04-26T00:49:50;3.47;;;2.28;;
39208;SDS011;24929;51.982;4.664;2023-04-26T00:52:15;4.18;;;3.33;;
39208;SDS011;24929;51.982;4.664;2023-04-26T00:54:41;5.85;;;3.00;;
39208;SDS011;24929;51.982;4.664;2023-04-26T00:57:07;4.85;;;2.83;;
39208;SDS011;24929;51.982;4.664;2023-04-26T00:59:34;6.47;;;2.63;;
39208;SDS011;24929;51.982;4.664;2023-04-26T01:02:01;11.52;;;3.20;;
39208;SDS011;24929;51.982;4.664;2023-04-26T01:04:27;3.42;;;2.67;;
39208;SDS011;24929;51.982;4.664;2023-04-26T01:06:54;5.50;;;2.38;;
39208;SDS011;24929;51.982;4.664;2023-04-26T01:09:20;4.28;;;2.65;;
39208;SDS011;24929;51.982;4.664;2023-04-26T01:11:46;3.60;;;2.55;;
39208;SDS011;24929;51.982;4.664;2023-04-26T01:14:13;5.65;;;2.40;;
39208;SDS011;24929;51.982;4.664;2023-04-26T01:16:39;5.13;;;2.85;;
39208;SDS011;24929;51.982;4.664;2023-04-26T01:19:11;10.23;;;3.72;;
39208;SDS011;24929;51.982;4.664;2023-04-26T01:21:37;5.65;;;2.42;;
39208;SDS011;24929;51.982;4.664;2023-04-26T01:24:03;3.55;;;2.88;;
39208;SDS011;24929;51.982;4.664;2023-04-26T01:26:30;4.72;;;2.78;;
39208;SDS011;24929;51.982;4.664;2023-04-26T01:28:56;6.82;;;3.42;;
39208;SDS011;24929;51.982;4.664;2023-04-26T01:31:22;3.67;;;2.55;;
39208;SDS011;24929;51.982;4.664;2023-04-26T01:33:47;5.53;;;2.80;;
39208;SDS011;24929;51.982;4.664;2023-04-26T01:36:13;5.97;;;2.15;;
39208;SDS011;24929;51.982;4.664;2023-04-26T01:38:38;2.38;;;2.05;;
39208;SDS011;24929;51.982;4.664;2023-04-26T01:41:03;4.50;;;2.83;;
39208;SDS011;24929;51.982;4.664;2023-04-26T01:43:29;4.82;;;2.38;;
39208;SDS011;24929;51.982;4.664;2023-04-26T01:45:54;4.53;;;3.20;;
39208;SDS011;24929;51.982;4.664;2023-04-26T01:48:20;4.90;;;2.38;;
39208;SDS011;24929;51.982;4.664;2023-04-26T01:50:45;5.18;;;3.15;;
39208;SDS011;24929;51.982;4.664;2023-04-26T01:53:11;3.17;;;2.67;;
39208;SDS011;24929;51.982;4.664;2023-04-26T01:55:36;6.30;;;3.00;;
39208;SDS011;24929;51.982;4.664;2023-04-26T01:58:02;5.35;;;2.55;;
39208;SDS011;24929;51.982;4.664;2023-04-26T02:00:28;7.72;;;2.72;;
39208;SDS011;24929;51.982;4.664;2023-04-26T02:02:54;5.07;;;2.45;;
39208;SDS011;24929;51.982;4.664;2023-04-26T02:05:20;5.22;;;2.50;;
39208;SDS011;24929;51.982;4.664;2023-04-26T02:07:46;4.88;;;2.92;;
39208;SDS011;24929;51.982;4.664;2023-04-26T02:10:12;3.08;;;2.40;;
39208;SDS011;24929;51.982;4.664;2023-04-26T02:12:37;6.22;;;2.60;;
39208;SDS011;24929;51.982;4.664;2023-04-26T02:15:03;4.32;;;2.53;;
39208;SDS011;24929;51.982;4.664;2023-04-26T02:17:30;6.47;;;2.97;;
39208;SDS011;24929;51.982;4.664;2023-04-26T02:19:55;8.10;;;2.50;;
39208;SDS011;24929;51.982;4.664;2023-04-26T02:22:22;4.05;;;2.15;;
39208;SDS011;24929;51.982;4.664;2023-04-26T02:24:49;6.13;;;2.00;;
39208;SDS011;24929;51.982;4.664;2023-04-26T02:27:16;3.92;;;2.22;;
39208;SDS011;24929;51.982;4.664;2023-04-26T02:29:41;2.65;;;1.67;;
39208;SDS011;24929;51.982;4.664;2023-04-26T02:32:07;3.13;;;1.70;;
39208;SDS011;24929;51.982;4.664;2023-04-26T02:34:32;2.78;;;2.30;;
39208;SDS011;24929;51.982;4.664;2023-04-26T02:36:58;5.70;;;2.38;;
39208;SDS011;24929;51.982;4.664;2023-04-26T02:39:23;4.85;;;2.50;;
39208;SDS011;24929;51.982;4.664;2023-04-26T02:41:48;6.05;;;2.92;;
39208;SDS011;24929;51.982;4.664;2023-04-26T02:44:14;9.13;;;2.53;;
39208;SDS011;24929;51.982;4.664;2023-04-26T02:46:40;4.53;;;2.22;;
39208;SDS011;24929;51.982;4.664;2023-04-26T02:49:06;13.70;;;2.67;;
39208;SDS011;24929;51.982;4.664;2023-04-26T02:51:31;6.80;;;2.25;;
39208;SDS011;24929;51.982;4.664;2023-04-26T02:53:57;4.07;;;2.92;;
39208;SDS011;24929;51.982;4.664;2023-04-26T02:56:23;7.63;;;2.80;;
39208;SDS011;24929;51.982;4.664;2023-04-26T02:58:49;4.20;;;2.40;;
39208;SDS011;24929;51.982;4.664;2023-04-26T03:01:14;14.45;;;2.80;;
39208;SDS011;24929;51.982;4.664;2023-04-26T03:03:40;7.20;;;3.72;;
39208;SDS011;24929;51.982;4.664;2023-04-26T03:06:06;3.38;;;2.17;;
39208;SDS011;24929;51.982;4.664;2023-04-26T03:08:31;9.05;;;2.42;;
39208;SDS011;24929;51.982;4.664;2023-04-26T03:10:59;7.57;;;2.17;;
39208;SDS011;24929;51.982;4.664;2023-04-26T03:13:24;3.83;;;2.83;;
39208;SDS011;24929;51.982;4.664;2023-04-26T03:15:50;8.80;;;2.92;;
39208;SDS011;24929;51.982;4.664;2023-04-26T03:18:16;5.00;;;2.90;;
39208;SDS011;24929;51.982;4.664;2023-04-26T03:20:42;3.50;;;2.17;;
39208;SDS011;24929;51.982;4.664;2023-04-26T03:23:07;6.30;;;2.28;;
39208;SDS011;24929;51.982;4.664;2023-04-26T03:25:32;3.70;;;2.17;;
39208;SDS011;24929;51.982;4.664;2023-04-26T03:27:58;2.15;;;1.90;;
39208;SDS011;24929;51.982;4.664;2023-04-26T03:30:23;6.43;;;2.80;;
39208;SDS011;24929;51.982;4.664;2023-04-26T03:32:49;5.75;;;2.78;;
39208;SDS011;24929;51.982;4.664;2023-04-26T03:35:15;6.68;;;2.20;;
39208;SDS011;24929;51.982;4.664;2023-04-26T03:37:40;3.15;;;2.33;;
39208;SDS011;24929;51.982;4.664;2023-04-26T03:40:07;6.43;;;2.65;;
39208;SDS011;24929;51.982;4.664;2023-04-26T03:42:33;5.35;;;2.95;;
39208;SDS011;24929;51.982;4.664;2023-04-26T03:44:58;5.70;;;3.30;;
39208;SDS011;24929;51.982;4.664;2023-04-26T03:47:24;4.88;;;2.63;;
39208;SDS011;24929;51.982;4.664;2023-04-26T03:49:52;4.13;;;2.80;;
39208;SDS011;24929;51.982;4.664;2023-04-26T03:52:17;4.88;;;3.20;;
39208;SDS011;24929;51.982;4.664;2023-04-26T03:54:43;5.60;;;3.03;;
39208;SDS011;24929;51.982;4.664;2023-04-26T03:57:09;4.05;;;2.78;;
39208;SDS011;24929;51.982;4.664;2023-04-26T03:59:34;3.67;;;3.35;;
39208;SDS011;24929;51.982;4.664;2023-04-26T04:01:59;4.93;;;3.55;;
39208;SDS011;24929;51.982;4.664;2023-04-26T04:04:25;2.97;;;2.55;;
39208;SDS011;24929;51.982;4.664;2023-04-26T04:06:51;11.80;;;4.07;;
39208;SDS011;24929;51.982;4.664;2023-04-26T04:09:16;5.95;;;3.22;;
39208;SDS011;24929;51.982;4.664;2023-04-26T04:11:42;6.55;;;3.53;;
39208;SDS011;24929;51.982;4.664;2023-04-26T04:14:07;4.60;;;3.50;;
39208;SDS011;24929;51.982;4.664;2023-04-26T04:16:32;6.60;;;3.80;;
39208;SDS011;24929;51.982;4.664;2023-04-26T04:18:58;4.47;;;3.25;;
39208;SDS011;24929;51.982;4.664;2023-04-26T04:21:23;10.05;;;3.90;;
39208;SDS011;24929;51.982;4.664;2023-04-26T04:23:48;4.43;;;3.30;;
39208;SDS011;24929;51.982;4.664;2023-04-26T04:26:14;10.98;;;3.70;;
39208;SDS011;24929;51.982;4.664;2023-04-26T04:28:40;11.63;;;3.97;;
39208;SDS011;24929;51.982;4.664;2023-04-26T04:31:06;7.43;;;3.22;;
39208;SDS011;24929;51.982;4.664;2023-04-26T04:33:34;16.58;;;5.20;;
39208;SDS011;24929;51.982;4.664;2023-04-26T04:36:00;4.63;;;3.58;;
39208;SDS011;24929;51.982;4.664;2023-04-26T04:38:25;8.30;;;3.45;;
39208;SDS011;24929;51.982;4.664;2023-04-26T04:40:50;6.13;;;3.28;;
39208;SDS011;24929;51.982;4.664;2023-04-26T04:43:16;4.60;;;3.60;;
39208;SDS011;24929;51.982;4.664;2023-04-26T04:45:41;4.80;;;3.55;;
39208;SDS011;24929;51.982;4.664;2023-04-26T04:48:07;7.57;;;4.38;;
39208;SDS011;24929;51.982;4.664;2023-04-26T04:50:33;4.80;;;4.30;;
39208;SDS011;24929;51.982;4.664;2023-04-26T04:52:59;7.13;;;3.85;;
39208;SDS011;24929;51.982;4.664;2023-04-26T04:55:25;5.53;;;3.33;;
39208;SDS011;24929;51.982;4.664;2023-04-26T04:57:50;12.57;;;4.15;;
39208;SDS011;24929;51.982;4.664;2023-04-26T05:00:16;5.72;;;4.53;;
39208;SDS011;24929;51.982;4.664;2023-04-26T05:02:41;5.95;;;4.45;;
39208;SDS011;24929;51.982;4.664;2023-04-26T05:05:07;6.40;;;4.32;;
39208;SDS011;24929;51.982;4.664;2023-04-26T05:07:33;6.95;;;3.75;;
39208;SDS011;24929;51.982;4.664;2023-04-26T05:09:59;9.43;;;5.15;;
39208;SDS011;24929;51.982;4.664;2023-04-26T05:12:24;6.43;;;4.40;;
39208;SDS011;24929;51.982;4.664;2023-04-26T05:14:50;4.90;;;4.10;;
39208;SDS011;24929;51.982;4.664;2023-04-26T05:17:15;8.20;;;5.45;;
39208;SDS011;24929;51.982;4.664;2023-04-26T05:19:41;12.15;;;4.30;;
39208;SDS011;24929;51.982;4.664;2023-04-26T05:22:06;12.45;;;5.53;;
39208;SDS011;24929;51.982;4.664;2023-04-26T05:24:32;7.25;;;5.55;;
39208;SDS011;24929;51.982;4.664;2023-04-26T05:26:58;12.57;;;5.38;;
39208;SDS011;24929;51.982;4.664;2023-04-26T05:29:27;8.70;;;5.20;;
39208;SDS011;24929;51.982;4.664;2023-04-26T05:31:53;9.00;;;5.68;;
39208;SDS011;24929;51.982;4.664;2023-04-26T05:34:24;6.95;;;4.95;;
39208;SDS011;24929;51.982;4.664;2023-04-26T05:36:50;5.63;;;4.18;;
39208;SDS011;24929;51.982;4.664;2023-04-26T05:39:15;17.55;;;4.40;;
39208;SDS011;24929;51.982;4.664;2023-04-26T05:41:41;6.25;;;3.65;;
39208;SDS011;24929;51.982;4.664;2023-04-26T05:44:07;4.47;;;3.47;;
39208;SDS011;24929;51.982;4.664;2023-04-26T05:46:32;5.07;;;3.50;;
39208;SDS011;24929;51.982;4.664;2023-04-26T05:48:57;4.53;;;2.85;;
39208;SDS011;24929;51.982;4.664;2023-04-26T05:51:23;8.80;;;3.25;;
39208;SDS011;24929;51.982;4.664;2023-04-26T05:53:48;3.97;;;3.38;;
39208;SDS011;24929;51.982;4.664;2023-04-26T05:56:14;4.57;;;3.42;;
39208;SDS011;24929;51.982;4.664;2023-04-26T05:58:39;5.32;;;3.60;;
39208;SDS011;24929;51.982;4.664;2023-04-26T06:01:04;7.25;;;4.38;;
39208;SDS011;24929;51.982;4.664;2023-04-26T06:03:30;6.45;;;3.60;;
39208;SDS011;24929;51.982;4.664;2023-04-26T06:05:55;9.32;;;4.00;;
39208;SDS011;24929;51.982;4.664;2023-04-26T06:08:21;5.63;;;3.22;;
39208;SDS011;24929;51.982;4.664;2023-04-26T06:10:46;6.63;;;3.35;;
39208;SDS011;24929;51.982;4.664;2023-04-26T06:13:11;5.90;;;3.78;;
39208;SDS011;24929;51.982;4.664;2023-04-26T06:15:37;7.80;;;3.65;;
39208;SDS011;24929;51.982;4.664;2023-04-26T06:18:05;5.57;;;3.55;;
39208;SDS011;24929;51.982;4.664;2023-04-26T06:20:31;8.50;;;4.03;;
39208;SDS011;24929;51.982;4.664;2023-04-26T06:22:57;9.40;;;3.90;;
39208;SDS011;24929;51.982;4.664;2023-04-26T06:25:22;4.07;;;3.58;;
39208;SDS011;24929;51.982;4.664;2023-04-26T06:27:48;6.85;;;3.30;;
39208;SDS011;24929;51.982;4.664;2023-04-26T06:30:13;5.40;;;2.85;;
39208;SDS011;24929;51.982;4.664;2023-04-26T06:32:39;4.35;;;3.13;;
39208;SDS011;24929;51.982;4.664;2023-04-26T06:35:05;2.25;;;1.67;;
39208;SDS011;24929;51.982;4.664;2023-04-26T06:37:31;3.20;;;2.40;;
39208;SDS011;24929;51.982;4.664;2023-04-26T06:39:56;4.95;;;2.72;;
39208;SDS011;24929;51.982;4.664;2023-04-26T06:42:22;3.97;;;2.40;;
39208;SDS011;24929;51.982;4.664;2023-04-26T06:44:47;2.13;;;1.70;;
39208;SDS011;24929;51.982;4.664;2023-04-26T06:47:13;10.73;;;2.53;;
39208;SDS011;24929;51.982;4.664;2023-04-26T06:49:38;1.55;;;1.15;;
39208;SDS011;24929;51.982;4.664;2023-04-26T06:52:05;3.47;;;1.73;;
39208;SDS011;24929;51.982;4.664;2023-04-26T06:54:31;6.00;;;1.63;;
39208;SDS011;24929;51.982;4.664;2023-04-26T06:56:56;7.60;;;2.42;;
39208;SDS011;24929;51.982;4.664;2023-04-26T06:59:22;3.53;;;1.90;;
39208;SDS011;24929;51.982;4.664;2023-04-26T07:01:47;6.22;;;2.28;;
39208;SDS011;24929;51.982;4.664;2023-04-26T07:04:12;2.28;;;1.50;;
39208;SDS011;24929;51.982;4.664;2023-04-26T07:06:39;3.45;;;1.92;;
39208;SDS011;24929;51.982;4.664;2023-04-26T07:09:05;1.63;;;1.20;;
39208;SDS011;24929;51.982;4.664;2023-04-26T07:11:31;3.53;;;2.13;;
39208;SDS011;24929;51.982;4.664;2023-04-26T07:13:56;2.40;;;1.42;;
39208;SDS011;24929;51.982;4.664;2023-04-26T07:16:22;4.97;;;2.25;;
39208;SDS011;24929;51.982;4.664;2023-04-26T07:18:47;5.65;;;2.13;;
39208;SDS011;24929;51.982;4.664;2023-04-26T07:21:13;3.25;;;1.20;;
39208;SDS011;24929;51.982;4.664;2023-04-26T07:23:38;2.78;;;1.77;;
39208;SDS011;24929;51.982;4.664;2023-04-26T07:26:04;5.03;;;1.90;;
39208;SDS011;24929;51.982;4.664;2023-04-26T07:28:30;4.35;;;1.42;;
39208;SDS011;24929;51.982;4.664;2023-04-26T07:30:56;1.00;;;0.90;;
39208;SDS011;24929;51.982;4.664;2023-04-26T07:33:22;3.83;;;1.10;;
39208;SDS011;24929;51.982;4.664;2023-04-26T07:35:57;5.68;;;1.60;;
39208;SDS011;24929;51.982;4.664;2023-04-26T07:38:25;1.27;;;1.00;;
39208;SDS011;24929;51.982;4.664;2023-04-26T07:40:51;2.45;;;1.55;;
39208;SDS011;24929;51.982;4.664;2023-04-26T07:43:17;1.70;;;1.40;;
39208;SDS011;24929;51.982;4.664;2023-04-26T07:45:43;3.55;;;1.60;;
39208;SDS011;24929;51.982;4.664;2023-04-26T07:48:08;1.77;;;1.38;;
39208;SDS011;24929;51.982;4.664;2023-04-26T07:50:34;8.18;;;1.30;;
39208;SDS011;24929;51.982;4.664;2023-04-26T07:53:00;3.13;;;0.98;;
39208;SDS011;24929;51.982;4.664;2023-04-26T07:55:25;2.08;;;1.33;;
39208;SDS011;24929;51.982;4.664;2023-04-26T07:57:51;3.60;;;1.20;;
39208;SDS011;24929;51.982;4.664;2023-04-26T08:00:16;3.88;;;1.58;;
39208;SDS011;24929;51.982;4.664;2023-04-26T08:02:43;1.15;;;0.98;;
39208;SDS011;24929;51.982;4.664;2023-04-26T08:05:12;1.90;;;1.40;;
39208;SDS011;24929;51.982;4.664;2023-04-26T08:07:38;1.27;;;0.85;;
39208;SDS011;24929;51.982;4.664;2023-04-26T08:10:03;3.50;;;1.17;;
39208;SDS011;24929;51.982;4.664;2023-04-26T08:12:29;5.45;;;1.20;;
39208;SDS011;24929;51.982;4.664;2023-04-26T08:14:54;2.03;;;1.23;;
39208;SDS011;24929;51.982;4.664;2023-04-26T08:17:20;2.55;;;1.02;;
39208;SDS011;24929;51.982;4.664;2023-04-26T08:19:45;2.00;;;1.20;;
39208;SDS011;24929;51.982;4.664;2023-04-26T08:22:10;2.22;;;1.25;;
39208;SDS011;24929;51.982;4.664;2023-04-26T08:24:36;2.85;;;1.13;;
39208;SDS011;24929;51.982;4.664;2023-04-26T08:27:01;2.25;;;1.00;;
39208;SDS011;24929;51.982;4.664;2023-04-26T08:29:27;2.00;;;1.00;;
39208;SDS011;24929;51.982;4.664;2023-04-26T08:31:53;2.78;;;1.00;;
39208;SDS011;24929;51.982;4.664;2023-04-26T08:34:18;1.20;;;1.10;;
39208;SDS011;24929;51.982;4.664;2023-04-26T08:36:43;2.20;;;0.90;;
39208;SDS011;24929;51.982;4.664;2023-04-26T08:39:10;1.10;;;1.00;;
39208;SDS011;24929;51.982;4.664;2023-04-26T08:41:37;1.35;;;0.80;;
39208;SDS011;24929;51.982;4.664;2023-04-26T08:44:09;3.50;;;1.05;;
39208;SDS011;24929;51.982;4.664;2023-04-26T08:46:35;1.90;;;1.20;;
39208;SDS011;24929;51.982;4.664;2023-04-26T08:49:29;2.30;;;1.02;;
39208;SDS011;24929;51.982;4.664;2023-04-26T08:52:07;1.25;;;0.93;;
39208;SDS011;24929;51.982;4.664;2023-04-26T08:54:35;1.55;;;0.50;;
39208;SDS011;24929;51.982;4.664;2023-04-26T08:57:01;3.20;;;0.73;;
39208;SDS011;24929;51.982;4.664;2023-04-26T08:59:28;1.63;;;1.00;;
39208;SDS011;24929;51.982;4.664;2023-04-26T09:01:55;1.48;;;1.17;;
39208;SDS011;24929;51.982;4.664;2023-04-26T09:04:21;2.78;;;1.13;;
39208;SDS011;24929;51.982;4.664;2023-04-26T09:06:47;1.67;;;0.93;;
39208;SDS011;24929;51.982;4.664;2023-04-26T09:09:15;1.88;;;0.70;;
39208;SDS011;24929;51.982;4.664;2023-04-26T09:11:56;4.93;;;0.90;;
39208;SDS011;24929;51.982;4.664;2023-04-26T09:14:23;2.15;;;0.80;;
39208;SDS011;24929;51.982;4.664;2023-04-26T09:16:49;2.88;;;0.77;;
39208;SDS011;24929;51.982;4.664;2023-04-26T09:19:16;1.55;;;0.80;;
39208;SDS011;24929;51.982;4.664;2023-04-26T09:21:45;1.77;;;0.43;;
39208;SDS011;24929;51.982;4.664;2023-04-26T09:24:11;1.50;;;0.90;;
39208;SDS011;24929;51.982;4.664;2023-04-26T09:26:37;1.83;;;0.98;;
39208;SDS011;24929;51.982;4.664;2023-04-26T09:29:09;2.05;;;1.02;;
39208;SDS011;24929;51.982;4.664;2023-04-26T09:31:41;1.08;;;0.65;;
39208;SDS011;24929;51.982;4.664;2023-04-26T09:34:08;1.75;;;0.90;;
39208;SDS011;24929;51.982;4.664;2023-04-26T09:36:50;0.82;;;0.63;;
39208;SDS011;24929;51.982;4.664;2023-04-26T09:42:11;5.13;;;1.02;;
39208;SDS011;24929;51.982;4.664;2023-04-26T09:44:41;2.65;;;1.33;;
39208;SDS011;24929;51.982;4.664;2023-04-26T09:47:08;1.30;;;0.73;;
39208;SDS011;24929;51.982;4.664;2023-04-26T09:49:45;5.97;;;1.13;;
39208;SDS011;24929;51.982;4.664;2023-04-26T09:52:13;7.10;;;1.35;;
39208;SDS011;24929;51.982;4.664;2023-04-26T09:54:42;0.70;;;0.70;;
39208;SDS011;24929;51.982;4.664;2023-04-26T09:57:11;3.53;;;1.13;;
39208;SDS011;24929;51.982;4.664;2023-04-26T09:59:38;1.77;;;0.80;;
39208;SDS011;24929;51.982;4.664;2023-04-26T10:02:09;1.83;;;1.20;;
39208;SDS011;24929;51.982;4.664;2023-04-26T10:04:38;0.90;;;0.85;;
39208;SDS011;24929;51.982;4.664;2023-04-26T10:07:03;1.83;;;0.85;;
39208;SDS011;24929;51.982;4.664;2023-04-26T10:09:30;2.50;;;1.17;;
39208;SDS011;24929;51.982;4.664;2023-04-26T10:11:57;6.38;;;0.85;;
39208;SDS011;24929;51.982;4.664;2023-04-26T10:14:22;5.80;;;1.38;;
39208;SDS011;24929;51.982;4.664;2023-04-26T10:16:49;2.75;;;1.30;;
39208;SDS011;24929;51.982;4.664;2023-04-26T10:19:14;2.63;;;1.27;;
39208;SDS011;24929;51.982;4.664;2023-04-26T10:21:40;0.80;;;0.80;;
39208;SDS011;24929;51.982;4.664;2023-04-26T10:24:07;5.63;;;1.80;;
39208;SDS011;24929;51.982;4.664;2023-04-26T10:26:49;2.55;;;0.88;;
39208;SDS011;24929;51.982;4.664;2023-04-26T10:34:26;0.85;;;0.57;;
39208;SDS011;24929;51.982;4.664;2023-04-26T10:37:05;2.42;;;0.80;;
39208;SDS011;24929;51.982;4.664;2023-04-26T10:39:32;0.82;;;0.80;;
39208;SDS011;24929;51.982;4.664;2023-04-26T10:44:47;2.67;;;1.38;;
39208;SDS011;24929;51.982;4.664;2023-04-26T10:50:04;1.38;;;0.85;;
39208;SDS011;24929;51.982;4.664;2023-04-26T10:52:34;1.55;;;0.80;;
39208;SDS011;24929;51.982;4.664;2023-04-26T10:55:00;0.88;;;0.65;;
39208;SDS011;24929;51.982;4.664;2023-04-26T10:57:45;2.28;;;1.10;;
39208;SDS011;24929;51.982;4.664;2023-04-26T11:00:17;1.08;;;0.98;;
39208;SDS011;24929;51.982;4.664;2023-04-26T11:10:36;1.48;;;0.80;;
39208;SDS011;24929;51.982;4.664;2023-04-26T11:13:02;3.20;;;0.80;;
39208;SDS011;24929;51.982;4.664;2023-04-26T11:15:28;2.28;;;0.95;;
39208;SDS011;24929;51.982;4.664;2023-04-26T11:17:55;1.17;;;0.70;;
39208;SDS011;24929;51.982;4.664;2023-04-26T11:20:20;2.55;;;0.85;;
39208;SDS011;24929;51.982;4.664;2023-04-26T11:22:46;4.25;;;1.08;;
39208;SDS011;24929;51.982;4.664;2023-04-26T11:25:11;2.33;;;0.93;;
39208;SDS011;24929;51.982;4.664;2023-04-26T11:27:37;1.55;;;0.90;;
39208;SDS011;24929;51.982;4.664;2023-04-26T11:30:03;1.00;;;0.85;;
39208;SDS011;24929;51.982;4.664;2023-04-26T11:32:29;2.03;;;1.05;;
39208;SDS011;24929;51.982;4.664;2023-04-26T11:34:54;0.82;;;0.80;;
39208;SDS011;24929;51.982;4.664;2023-04-26T11:37:24;1.92;;;1.00;;
39208;SDS011;24929;51.982;4.664;2023-04-26T11:39:50;1.90;;;1.15;;
39208;SDS011;24929;51.982;4.664;2023-04-26T11:42:15;0.90;;;0.70;;
39208;SDS011;24929;51.982;4.664;2023-04-26T11:44:41;1.67;;;0.77;;
39208;SDS011;24929;51.982;4.664;2023-04-26T11:47:07;2.45;;;0.80;;
39208;SDS011;24929;51.982;4.664;2023-04-26T11:49:34;1.40;;;0.95;;
39208;SDS011;24929;51.982;4.664;2023-04-26T11:52:01;1.83;;;1.20;;
39208;SDS011;24929;51.982;4.664;2023-04-26T11:54:29;2.15;;;1.27;;
39208;SDS011;24929;51.982;4.664;2023-04-26T11:56:58;1.45;;;0.88;;
39208;SDS011;24929;51.982;4.664;2023-04-26T11:59:24;2.53;;;1.25;;
39208;SDS011;24929;51.982;4.664;2023-04-26T12:01:50;1.63;;;1.00;;
39208;SDS011;24929;51.982;4.664;2023-04-26T12:04:25;2.83;;;1.05;;
39208;SDS011;24929;51.982;4.664;2023-04-26T12:06:54;1.48;;;0.98;;
39208;SDS011;24929;51.982;4.664;2023-04-26T12:09:27;1.92;;;0.60;;
39208;SDS011;24929;51.982;4.664;2023-04-26T12:14:32;6.80;;;1.40;;
39208;SDS011;24929;51.982;4.664;2023-04-26T12:16:59;1.13;;;0.98;;
39208;SDS011;24929;51.982;4.664;2023-04-26T12:19:31;2.30;;;1.08;;
39208;SDS011;24929;51.982;4.664;2023-04-26T12:24:26;0.93;;;0.80;;
39208;SDS011;24929;51.982;4.664;2023-04-26T12:26:54;2.75;;;1.45;;
39208;SDS011;24929;51.982;4.664;2023-04-26T12:29:19;2.90;;;1.05;;
39208;SDS011;24929;51.982;4.664;2023-04-26T12:31:45;2.42;;;1.52;;
39208;SDS011;24929;51.982;4.664;2023-04-26T12:34:11;4.50;;;1.10;;
39208;SDS011;24929;51.982;4.664;2023-04-26T12:36:37;1.13;;;1.00;;
39208;SDS011;24929;51.982;4.664;2023-04-26T12:39:04;1.27;;;1.02;;
39208;SDS011;24929;51.982;4.664;2023-04-26T12:41:30;2.35;;;1.08;;
39208;SDS011;24929;51.982;4.664;2023-04-26T12:43:56;2.20;;;1.55;;
39208;SDS011;24929;51.982;4.664;2023-04-26T12:46:22;4.35;;;1.40;;
39208;SDS011;24929;51.982;4.664;2023-04-26T12:48:47;4.47;;;1.30;;
39208;SDS011;24929;51.982;4.664;2023-04-26T12:51:12;4.28;;;1.40;;
39208;SDS011;24929;51.982;4.664;2023-04-26T12:53:38;1.52;;;1.33;;
39208;SDS011;24929;51.982;4.664;2023-04-26T12:56:04;2.92;;;1.45;;
39208;SDS011;24929;51.982;4.664;2023-04-26T12:58:29;2.35;;;1.05;;
39208;SDS011;24929;51.982;4.664;2023-04-26T13:00:55;3.00;;;1.35;;
39208;SDS011;24929;51.982;4.664;2023-04-26T13:03:20;3.85;;;1.58;;
39208;SDS011;24929;51.982;4.664;2023-04-26T13:05:45;1.60;;;1.05;;
39208;SDS011;24929;51.982;4.664;2023-04-26T13:08:11;3.42;;;1.33;;
39208;SDS011;24929;51.982;4.664;2023-04-26T13:10:36;5.70;;;1.45;;
39208;SDS011;24929;51.982;4.664;2023-04-26T13:13:02;2.78;;;1.08;;
39208;SDS011;24929;51.982;4.664;2023-04-26T13:15:27;4.78;;;1.15;;
39208;SDS011;24929;51.982;4.664;2023-04-26T13:17:53;1.85;;;1.08;;
39208;SDS011;24929;51.982;4.664;2023-04-26T13:20:19;2.65;;;0.93;;
39208;SDS011;24929;51.982;4.664;2023-04-26T13:22:44;1.67;;;1.05;;
39208;SDS011;24929;51.982;4.664;2023-04-26T13:25:10;2.08;;;1.48;;
39208;SDS011;24929;51.982;4.664;2023-04-26T13:27:37;2.45;;;1.50;;
39208;SDS011;24929;51.982;4.664;2023-04-26T13:30:02;2.95;;;1.33;;
39208;SDS011;24929;51.982;4.664;2023-04-26T13:32:28;2.60;;;1.45;;
39208;SDS011;24929;51.982;4.664;2023-04-26T13:34:54;2.03;;;1.35;;
39208;SDS011;24929;51.982;4.664;2023-04-26T13:37:20;1.35;;;1.10;;
39208;SDS011;24929;51.982;4.664;2023-04-26T13:39:46;4.22;;;1.27;;
39208;SDS011;24929;51.982;4.664;2023-04-26T13:42:12;1.70;;;1.05;;
39208;SDS011;24929;51.982;4.664;2023-04-26T13:44:39;4.07;;;1.05;;
39208;SDS011;24929;51.982;4.664;2023-04-26T13:47:04;2.58;;;1.13;;
39208;SDS011;24929;51.982;4.664;2023-04-26T13:49:30;1.63;;;1.30;;
39208;SDS011;24929;51.982;4.664;2023-04-26T13:51:56;4.38;;;1.15;;
39208;SDS011;24929;51.982;4.664;2023-04-26T13:54:21;2.15;;;1.00;;
39208;SDS011;24929;51.982;4.664;2023-04-26T13:56:47;1.90;;;1.02;;
39208;SDS011;24929;51.982;4.664;2023-04-26T13:59:12;1.17;;;1.00;;
39208;SDS011;24929;51.982;4.664;2023-04-26T14:01:38;1.38;;;1.10;;
39208;SDS011;24929;51.982;4.664;2023-04-26T14:04:04;1.45;;;1.13;;
39208;SDS011;24929;51.982;4.664;2023-04-26T14:06:30;2.70;;;0.80;;
39208;SDS011;24929;51.982;4.664;2023-04-26T14:08:57;1.85;;;0.88;;
39208;SDS011;24929;51.982;4.664;2023-04-26T14:11:22;1.20;;;1.05;;
39208;SDS011;24929;51.982;4.664;2023-04-26T14:13:48;3.17;;;1.05;;
39208;SDS011;24929;51.982;4.664;2023-04-26T14:16:14;1.30;;;1.15;;
39208;SDS011;24929;51.982;4.664;2023-04-26T14:18:41;0.88;;;0.65;;
39208;SDS011;24929;51.982;4.664;2023-04-26T14:21:09;2.90;;;1.17;;
39208;SDS011;24929;51.982;4.664;2023-04-26T14:23:36;1.48;;;1.20;;
39208;SDS011;24929;51.982;4.664;2023-04-26T14:26:01;4.05;;;1.80;;
39208;SDS011;24929;51.982;4.664;2023-04-26T14:28:26;3.13;;;1.08;;
39208;SDS011;24929;51.982;4.664;2023-04-26T14:30:52;1.23;;;0.85;;
39208;SDS011;24929;51.982;4.664;2023-04-26T14:33:18;1.98;;;1.42;;
39208;SDS011;24929;51.982;4.664;2023-04-26T14:35:43;5.40;;;1.15;;
39208;SDS011;24929;51.982;4.664;2023-04-26T14:38:08;1.95;;;1.40;;
39208;SDS011;24929;51.982;4.664;2023-04-26T14:40:34;3.30;;;1.10;;
39208;SDS011;24929;51.982;4.664;2023-04-26T14:43:01;1.38;;;1.17;;
39208;SDS011;24929;51.982;4.664;2023-04-26T14:45:26;3.00;;;1.30;;
39208;SDS011;24929;51.982;4.664;2023-04-26T14:47:52;2.38;;;1.33;;
39208;SDS011;24929;51.982;4.664;2023-04-26T14:50:17;0.85;;;0.73;;
39208;SDS011;24929;51.982;4.664;2023-04-26T14:52:43;2.40;;;1.25;;
39208;SDS011;24929;51.982;4.664;2023-04-26T14:55:15;1.73;;;1.23;;
39208;SDS011;24929;51.982;4.664;2023-04-26T14:57:42;2.97;;;1.25;;
39208;SDS011;24929;51.982;4.664;2023-04-26T15:00:07;1.33;;;1.05;;
39208;SDS011;24929;51.982;4.664;2023-04-26T15:02:38;3.10;;;1.38;;
39208;SDS011;24929;51.982;4.664;2023-04-26T15:05:03;4.38;;;1.50;;
39208;SDS011;24929;51.982;4.664;2023-04-26T15:07:30;1.98;;;1.20;;
39208;SDS011;24929;51.982;4.664;2023-04-26T15:09:55;2.47;;;1.25;;